sensor_id;sensor_type;location;lat;lon;timestamp;P1;durP1;ratioP1;P2;durP2;ratioP2
50900;SDS011;36879;51.416;6.678;2023-05-07T00:01:58;10.13;;;7.35;;
50900;SDS011;36879;51.416;6.678;2023-05-07T00:04:24;9.93;;;6.97;;
50900;SDS011;36879;51.416;6.678;2023-05-07T00:06:50;11.50;;;8.30;;
50900;SDS011;36879;51.416;6.678;2023-05-07T00:09:16;11.43;;;7.78;;
50900;SDS011;36879;51.416;6.678;2023-05-07T00:11:42;9.77;;;7.07;;
50900;SDS011;36879;51.416;6.678;2023-05-07T00:14:08;10.25;;;7.70;;
50900;SDS011;36879;51.416;6.678;2023-05-07T00:16:34;8.13;;;7.00;;
50900;SDS011;36879;51.416;6.678;2023-05-07T00:19:00;11.02;;;8.07;;
50900;SDS011;36879;51.416;6.678;2023-05-07T00:21:26;12.57;;;8.63;;
50900;SDS011;36879;51.416;6.678;2023-05-07T00:23:53;11.38;;;8.88;;
50900;SDS011;36879;51.416;6.678;2023-05-07T00:26:19;12.50;;;10.38;;
50900;SDS011;36879;51.416;6.678;2023-05-07T00:28:45;14.20;;;11.45;;
50900;SDS011;36879;51.416;6.678;2023-05-07T00:31:11;13.60;;;10.30;;
50900;SDS011;36879;51.416;6.678;2023-05-07T00:33:37;14.02;;;10.20;;
50900;SDS011;36879;51.416;6.678;2023-05-07T00:36:04;12.20;;;10.90;;
50900;SDS011;36879;51.416;6.678;2023-05-07T00:38:30;14.60;;;11.00;;
50900;SDS011;36879;51.416;6.678;2023-05-07T00:40:56;16.73;;;11.98;;
50900;SDS011;36879;51.416;6.678;2023-05-07T00:43:22;14.25;;;11.00;;
50900;SDS011;36879;51.416;6.678;2023-05-07T00:45:48;13.05;;;10.50;;
50900;SDS011;36879;51.416;6.678;2023-05-07T00:48:14;13.50;;;10.85;;
50900;SDS011;36879;51.416;6.678;2023-05-07T00:50:40;11.32;;;9.88;;
50900;SDS011;36879;51.416;6.678;2023-05-07T00:53:06;13.38;;;9.73;;
50900;SDS011;36879;51.416;6.678;2023-05-07T00:55:33;11.73;;;9.18;;
50900;SDS011;36879;51.416;6.678;2023-05-07T00:57:59;11.43;;;8.98;;
50900;SDS011;36879;51.416;6.678;2023-05-07T01:00:25;13.55;;;9.55;;
50900;SDS011;36879;51.416;6.678;2023-05-07T01:02:51;12.43;;;9.13;;
50900;SDS011;36879;51.416;6.678;2023-05-07T01:05:17;15.38;;;9.25;;
50900;SDS011;36879;51.416;6.678;2023-05-07T01:07:44;12.27;;;9.45;;
50900;SDS011;36879;51.416;6.678;2023-05-07T01:10:11;16.05;;;10.35;;
50900;SDS011;36879;51.416;6.678;2023-05-07T01:12:37;13.30;;;10.45;;
50900;SDS011;36879;51.416;6.678;2023-05-07T01:15:05;15.02;;;9.80;;
50900;SDS011;36879;51.416;6.678;2023-05-07T01:17:35;14.25;;;10.63;;
50900;SDS011;36879;51.416;6.678;2023-05-07T01:20:01;12.43;;;10.07;;
50900;SDS011;36879;51.416;6.678;2023-05-07T01:22:45;14.45;;;10.60;;
50900;SDS011;36879;51.416;6.678;2023-05-07T01:25:11;15.63;;;10.95;;
50900;SDS011;36879;51.416;6.678;2023-05-07T01:27:38;16.67;;;11.60;;
50900;SDS011;36879;51.416;6.678;2023-05-07T01:30:04;17.92;;;13.35;;
50900;SDS011;36879;51.416;6.678;2023-05-07T01:32:36;16.92;;;12.65;;
50900;SDS011;36879;51.416;6.678;2023-05-07T01:35:04;17.90;;;12.85;;
50900;SDS011;36879;51.416;6.678;2023-05-07T01:37:31;22.65;;;14.10;;
50900;SDS011;36879;51.416;6.678;2023-05-07T01:39:57;19.90;;;14.15;;
50900;SDS011;36879;51.416;6.678;2023-05-07T01:42:23;18.20;;;13.82;;
50900;SDS011;36879;51.416;6.678;2023-05-07T01:44:50;18.58;;;14.70;;
50900;SDS011;36879;51.416;6.678;2023-05-07T01:47:16;20.80;;;16.08;;
50900;SDS011;36879;51.416;6.678;2023-05-07T01:49:42;19.50;;;14.68;;
50900;SDS011;36879;51.416;6.678;2023-05-07T01:52:10;25.17;;;15.43;;
50900;SDS011;36879;51.416;6.678;2023-05-07T01:54:36;19.88;;;14.80;;
50900;SDS011;36879;51.416;6.678;2023-05-07T01:57:03;20.05;;;13.98;;
50900;SDS011;36879;51.416;6.678;2023-05-07T01:59:29;19.40;;;13.50;;
50900;SDS011;36879;51.416;6.678;2023-05-07T02:01:55;19.02;;;13.63;;
50900;SDS011;36879;51.416;6.678;2023-05-07T02:04:21;17.65;;;12.50;;
50900;SDS011;36879;51.416;6.678;2023-05-07T02:06:47;18.08;;;12.32;;
50900;SDS011;36879;51.416;6.678;2023-05-07T02:09:13;15.75;;;11.30;;
50900;SDS011;36879;51.416;6.678;2023-05-07T02:11:39;20.52;;;13.43;;
50900;SDS011;36879;51.416;6.678;2023-05-07T02:14:05;18.83;;;13.57;;
50900;SDS011;36879;51.416;6.678;2023-05-07T02:16:31;21.77;;;13.65;;
50900;SDS011;36879;51.416;6.678;2023-05-07T02:18:57;18.05;;;13.38;;
50900;SDS011;36879;51.416;6.678;2023-05-07T02:21:24;16.90;;;13.63;;
50900;SDS011;36879;51.416;6.678;2023-05-07T02:23:50;19.15;;;14.48;;
50900;SDS011;36879;51.416;6.678;2023-05-07T02:26:16;21.55;;;15.43;;
50900;SDS011;36879;51.416;6.678;2023-05-07T02:28:42;21.65;;;14.18;;
50900;SDS011;36879;51.416;6.678;2023-05-07T02:31:08;19.80;;;14.32;;
50900;SDS011;36879;51.416;6.678;2023-05-07T02:33:34;18.33;;;14.57;;
50900;SDS011;36879;51.416;6.678;2023-05-07T02:36:08;21.48;;;14.68;;
50900;SDS011;36879;51.416;6.678;2023-05-07T02:38:34;20.05;;;15.30;;
50900;SDS011;36879;51.416;6.678;2023-05-07T02:41:00;19.15;;;15.32;;
50900;SDS011;36879;51.416;6.678;2023-05-07T02:43:26;19.98;;;13.10;;
50900;SDS011;36879;51.416;6.678;2023-05-07T02:46:05;25.17;;;14.40;;
50900;SDS011;36879;51.416;6.678;2023-05-07T02:48:31;19.48;;;14.07;;
50900;SDS011;36879;51.416;6.678;2023-05-07T02:50:57;22.55;;;14.50;;
50900;SDS011;36879;51.416;6.678;2023-05-07T02:53:24;20.17;;;14.93;;
50900;SDS011;36879;51.416;6.678;2023-05-07T02:55:52;24.25;;;16.15;;
50900;SDS011;36879;51.416;6.678;2023-05-07T02:58:18;29.70;;;18.38;;
50900;SDS011;36879;51.416;6.678;2023-05-07T03:00:44;28.20;;;18.58;;
50900;SDS011;36879;51.416;6.678;2023-05-07T03:03:10;27.85;;;19.15;;
50900;SDS011;36879;51.416;6.678;2023-05-07T03:05:36;31.15;;;21.75;;
50900;SDS011;36879;51.416;6.678;2023-05-07T03:08:02;32.60;;;19.92;;
50900;SDS011;36879;51.416;6.678;2023-05-07T03:10:29;30.35;;;20.95;;
50900;SDS011;36879;51.416;6.678;2023-05-07T03:12:55;33.53;;;23.60;;
50900;SDS011;36879;51.416;6.678;2023-05-07T03:15:21;30.70;;;20.98;;
50900;SDS011;36879;51.416;6.678;2023-05-07T03:17:47;30.00;;;20.63;;
50900;SDS011;36879;51.416;6.678;2023-05-07T03:20:13;30.25;;;20.40;;
50900;SDS011;36879;51.416;6.678;2023-05-07T03:22:40;31.25;;;19.30;;
50900;SDS011;36879;51.416;6.678;2023-05-07T03:25:06;33.13;;;21.02;;
50900;SDS011;36879;51.416;6.678;2023-05-07T03:27:32;27.42;;;18.55;;
50900;SDS011;36879;51.416;6.678;2023-05-07T03:29:59;29.40;;;20.30;;
50900;SDS011;36879;51.416;6.678;2023-05-07T03:32:25;33.88;;;20.33;;
50900;SDS011;36879;51.416;6.678;2023-05-07T03:34:51;33.67;;;22.33;;
50900;SDS011;36879;51.416;6.678;2023-05-07T03:37:17;33.75;;;22.40;;
50900;SDS011;36879;51.416;6.678;2023-05-07T03:39:44;28.15;;;19.67;;
50900;SDS011;36879;51.416;6.678;2023-05-07T03:42:10;35.13;;;21.40;;
50900;SDS011;36879;51.416;6.678;2023-05-07T03:44:36;32.22;;;21.85;;
50900;SDS011;36879;51.416;6.678;2023-05-07T03:47:02;32.47;;;22.08;;
50900;SDS011;36879;51.416;6.678;2023-05-07T03:49:28;34.47;;;22.70;;
50900;SDS011;36879;51.416;6.678;2023-05-07T03:51:54;35.95;;;22.92;;
50900;SDS011;36879;51.416;6.678;2023-05-07T03:54:20;33.90;;;23.58;;
50900;SDS011;36879;51.416;6.678;2023-05-07T03:56:46;30.77;;;21.95;;
50900;SDS011;36879;51.416;6.678;2023-05-07T03:59:12;35.45;;;23.85;;
50900;SDS011;36879;51.416;6.678;2023-05-07T04:01:38;35.20;;;24.75;;
50900;SDS011;36879;51.416;6.678;2023-05-07T04:04:05;40.05;;;25.52;;
50900;SDS011;36879;51.416;6.678;2023-05-07T04:06:31;37.60;;;24.17;;
50900;SDS011;36879;51.416;6.678;2023-05-07T04:08:57;35.15;;;23.42;;
50900;SDS011;36879;51.416;6.678;2023-05-07T04:11:23;34.42;;;23.45;;
50900;SDS011;36879;51.416;6.678;2023-05-07T04:13:49;39.65;;;25.75;;
50900;SDS011;36879;51.416;6.678;2023-05-07T04:16:15;40.08;;;26.98;;
50900;SDS011;36879;51.416;6.678;2023-05-07T04:18:41;40.95;;;26.88;;
50900;SDS011;36879;51.416;6.678;2023-05-07T04:21:17;45.03;;;27.58;;
50900;SDS011;36879;51.416;6.678;2023-05-07T04:23:43;45.45;;;26.58;;
50900;SDS011;36879;51.416;6.678;2023-05-07T04:26:09;41.08;;;26.65;;
50900;SDS011;36879;51.416;6.678;2023-05-07T04:28:36;39.08;;;25.83;;
50900;SDS011;36879;51.416;6.678;2023-05-07T04:31:02;39.78;;;26.92;;
50900;SDS011;36879;51.416;6.678;2023-05-07T04:33:28;34.22;;;23.65;;
50900;SDS011;36879;51.416;6.678;2023-05-07T04:35:54;39.08;;;23.15;;
50900;SDS011;36879;51.416;6.678;2023-05-07T04:38:20;40.05;;;24.48;;
50900;SDS011;36879;51.416;6.678;2023-05-07T04:40:48;39.13;;;23.83;;
50900;SDS011;36879;51.416;6.678;2023-05-07T04:43:14;36.30;;;23.13;;
50900;SDS011;36879;51.416;6.678;2023-05-07T04:45:41;35.25;;;22.13;;
50900;SDS011;36879;51.416;6.678;2023-05-07T04:48:08;35.08;;;23.80;;
50900;SDS011;36879;51.416;6.678;2023-05-07T04:50:34;42.95;;;26.25;;
50900;SDS011;36879;51.416;6.678;2023-05-07T04:53:00;38.20;;;24.80;;
50900;SDS011;36879;51.416;6.678;2023-05-07T04:55:27;40.28;;;26.52;;
50900;SDS011;36879;51.416;6.678;2023-05-07T04:57:53;36.33;;;25.65;;
50900;SDS011;36879;51.416;6.678;2023-05-07T05:00:19;36.22;;;28.63;;
50900;SDS011;36879;51.416;6.678;2023-05-07T05:02:45;41.75;;;28.25;;
50900;SDS011;36879;51.416;6.678;2023-05-07T05:05:11;42.67;;;28.02;;
50900;SDS011;36879;51.416;6.678;2023-05-07T05:07:37;40.97;;;28.25;;
50900;SDS011;36879;51.416;6.678;2023-05-07T05:10:04;40.42;;;26.98;;
50900;SDS011;36879;51.416;6.678;2023-05-07T05:12:31;39.42;;;24.67;;
50900;SDS011;36879;51.416;6.678;2023-05-07T05:14:57;35.25;;;24.08;;
50900;SDS011;36879;51.416;6.678;2023-05-07T05:17:23;31.77;;;22.73;;
50900;SDS011;36879;51.416;6.678;2023-05-07T05:19:48;26.50;;;20.38;;
50900;SDS011;36879;51.416;6.678;2023-05-07T05:22:15;27.08;;;19.65;;
50900;SDS011;36879;51.416;6.678;2023-05-07T05:24:41;23.02;;;15.35;;
50900;SDS011;36879;51.416;6.678;2023-05-07T05:27:07;19.10;;;14.10;;
50900;SDS011;36879;51.416;6.678;2023-05-07T05:29:33;18.70;;;13.65;;
50900;SDS011;36879;51.416;6.678;2023-05-07T05:31:59;17.20;;;12.60;;
50900;SDS011;36879;51.416;6.678;2023-05-07T05:34:25;17.70;;;14.13;;
50900;SDS011;36879;51.416;6.678;2023-05-07T05:36:52;20.33;;;14.90;;
50900;SDS011;36879;51.416;6.678;2023-05-07T05:39:18;26.00;;;18.30;;
50900;SDS011;36879;51.416;6.678;2023-05-07T05:41:44;27.90;;;20.10;;
50900;SDS011;36879;51.416;6.678;2023-05-07T05:44:10;36.50;;;23.88;;
50900;SDS011;36879;51.416;6.678;2023-05-07T05:46:36;30.58;;;22.38;;
50900;SDS011;36879;51.416;6.678;2023-05-07T05:49:02;27.63;;;19.63;;
50900;SDS011;36879;51.416;6.678;2023-05-07T05:51:28;23.48;;;18.13;;
50900;SDS011;36879;51.416;6.678;2023-05-07T05:53:54;20.10;;;16.02;;
50900;SDS011;36879;51.416;6.678;2023-05-07T05:56:20;22.20;;;16.77;;
50900;SDS011;36879;51.416;6.678;2023-05-07T05:58:46;21.63;;;17.13;;
50900;SDS011;36879;51.416;6.678;2023-05-07T06:01:12;24.33;;;16.90;;
50900;SDS011;36879;51.416;6.678;2023-05-07T06:03:38;24.10;;;17.52;;
50900;SDS011;36879;51.416;6.678;2023-05-07T06:06:04;18.48;;;15.48;;
50900;SDS011;36879;51.416;6.678;2023-05-07T06:08:30;22.60;;;16.67;;
50900;SDS011;36879;51.416;6.678;2023-05-07T06:10:56;24.00;;;15.38;;
50900;SDS011;36879;51.416;6.678;2023-05-07T06:13:22;19.63;;;15.75;;
50900;SDS011;36879;51.416;6.678;2023-05-07T06:15:48;20.92;;;17.08;;
50900;SDS011;36879;51.416;6.678;2023-05-07T06:18:14;21.50;;;16.17;;
50900;SDS011;36879;51.416;6.678;2023-05-07T06:20:40;21.98;;;15.90;;
50900;SDS011;36879;51.416;6.678;2023-05-07T06:23:06;20.35;;;15.68;;
50900;SDS011;36879;51.416;6.678;2023-05-07T06:25:32;16.75;;;13.23;;
50900;SDS011;36879;51.416;6.678;2023-05-07T06:27:58;19.48;;;12.82;;
50900;SDS011;36879;51.416;6.678;2023-05-07T06:30:24;13.55;;;11.10;;
50900;SDS011;36879;51.416;6.678;2023-05-07T06:32:51;18.50;;;10.20;;
50900;SDS011;36879;51.416;6.678;2023-05-07T06:35:17;14.80;;;9.45;;
50900;SDS011;36879;51.416;6.678;2023-05-07T06:37:44;13.10;;;10.25;;
50900;SDS011;36879;51.416;6.678;2023-05-07T06:40:10;15.40;;;9.35;;
50900;SDS011;36879;51.416;6.678;2023-05-07T06:42:36;13.48;;;9.20;;
50900;SDS011;36879;51.416;6.678;2023-05-07T06:45:02;12.52;;;8.70;;
50900;SDS011;36879;51.416;6.678;2023-05-07T06:47:28;13.15;;;8.40;;
50900;SDS011;36879;51.416;6.678;2023-05-07T06:49:55;9.63;;;6.88;;
50900;SDS011;36879;51.416;6.678;2023-05-07T06:52:21;8.02;;;6.03;;
50900;SDS011;36879;51.416;6.678;2023-05-07T06:54:46;8.00;;;6.00;;
50900;SDS011;36879;51.416;6.678;2023-05-07T06:57:13;9.73;;;6.30;;
50900;SDS011;36879;51.416;6.678;2023-05-07T06:59:38;9.20;;;6.22;;
50900;SDS011;36879;51.416;6.678;2023-05-07T07:02:05;9.98;;;5.68;;
50900;SDS011;36879;51.416;6.678;2023-05-07T07:04:31;8.52;;;5.53;;
50900;SDS011;36879;51.416;6.678;2023-05-07T07:06:57;7.70;;;5.82;;
50900;SDS011;36879;51.416;6.678;2023-05-07T07:09:23;7.78;;;5.45;;
50900;SDS011;36879;51.416;6.678;2023-05-07T07:11:49;8.02;;;5.15;;
50900;SDS011;36879;51.416;6.678;2023-05-07T07:14:15;10.13;;;6.85;;
50900;SDS011;36879;51.416;6.678;2023-05-07T07:16:41;9.80;;;5.57;;
50900;SDS011;36879;51.416;6.678;2023-05-07T07:19:07;7.95;;;5.20;;
50900;SDS011;36879;51.416;6.678;2023-05-07T07:21:33;8.65;;;5.25;;
50900;SDS011;36879;51.416;6.678;2023-05-07T07:23:59;6.72;;;4.15;;
50900;SDS011;36879;51.416;6.678;2023-05-07T07:26:25;8.25;;;4.68;;
50900;SDS011;36879;51.416;6.678;2023-05-07T07:28:51;6.22;;;3.33;;
50900;SDS011;36879;51.416;6.678;2023-05-07T07:31:17;6.93;;;4.03;;
50900;SDS011;36879;51.416;6.678;2023-05-07T07:33:43;7.15;;;4.07;;
50900;SDS011;36879;51.416;6.678;2023-05-07T07:36:09;6.00;;;3.28;;
50900;SDS011;36879;51.416;6.678;2023-05-07T07:38:35;5.13;;;3.55;;
50900;SDS011;36879;51.416;6.678;2023-05-07T07:41:01;7.75;;;4.10;;
50900;SDS011;36879;51.416;6.678;2023-05-07T07:43:27;7.07;;;4.90;;
50900;SDS011;36879;51.416;6.678;2023-05-07T07:45:53;6.60;;;4.57;;
50900;SDS011;36879;51.416;6.678;2023-05-07T07:48:19;5.55;;;3.83;;
50900;SDS011;36879;51.416;6.678;2023-05-07T07:50:48;6.45;;;3.33;;
50900;SDS011;36879;51.416;6.678;2023-05-07T07:53:14;4.50;;;3.20;;
50900;SDS011;36879;51.416;6.678;2023-05-07T07:55:40;6.50;;;3.80;;
50900;SDS011;36879;51.416;6.678;2023-05-07T07:58:06;6.35;;;3.22;;
50900;SDS011;36879;51.416;6.678;2023-05-07T08:00:32;6.20;;;2.67;;
50900;SDS011;36879;51.416;6.678;2023-05-07T08:02:58;4.22;;;2.58;;
50900;SDS011;36879;51.416;6.678;2023-05-07T08:05:25;11.05;;;4.43;;
50900;SDS011;36879;51.416;6.678;2023-05-07T08:07:51;4.72;;;2.90;;
50900;SDS011;36879;51.416;6.678;2023-05-07T08:10:18;5.50;;;2.97;;
50900;SDS011;36879;51.416;6.678;2023-05-07T08:12:48;4.60;;;3.03;;
50900;SDS011;36879;51.416;6.678;2023-05-07T08:15:14;5.10;;;2.35;;
50900;SDS011;36879;51.416;6.678;2023-05-07T08:17:40;5.45;;;2.92;;
50900;SDS011;36879;51.416;6.678;2023-05-07T08:20:06;5.90;;;2.70;;
50900;SDS011;36879;51.416;6.678;2023-05-07T08:22:33;4.53;;;2.70;;
50900;SDS011;36879;51.416;6.678;2023-05-07T08:24:59;6.00;;;3.45;;
50900;SDS011;36879;51.416;6.678;2023-05-07T08:27:26;5.28;;;2.55;;
50900;SDS011;36879;51.416;6.678;2023-05-07T08:29:52;4.07;;;2.22;;
50900;SDS011;36879;51.416;6.678;2023-05-07T08:32:18;3.95;;;2.85;;
50900;SDS011;36879;51.416;6.678;2023-05-07T08:34:44;6.03;;;2.72;;
50900;SDS011;36879;51.416;6.678;2023-05-07T08:37:10;3.25;;;1.95;;
50900;SDS011;36879;51.416;6.678;2023-05-07T08:39:36;3.88;;;2.30;;
50900;SDS011;36879;51.416;6.678;2023-05-07T08:42:04;4.53;;;2.08;;
50900;SDS011;36879;51.416;6.678;2023-05-07T08:44:33;2.70;;;1.80;;
50900;SDS011;36879;51.416;6.678;2023-05-07T08:47:02;4.35;;;1.80;;
50900;SDS011;36879;51.416;6.678;2023-05-07T08:49:28;7.25;;;2.67;;
50900;SDS011;36879;51.416;6.678;2023-05-07T08:51:54;5.20;;;2.33;;
50900;SDS011;36879;51.416;6.678;2023-05-07T08:54:21;3.40;;;1.85;;
50900;SDS011;36879;51.416;6.678;2023-05-07T08:56:47;5.68;;;2.60;;
50900;SDS011;36879;51.416;6.678;2023-05-07T08:59:13;4.78;;;1.80;;
50900;SDS011;36879;51.416;6.678;2023-05-07T09:01:39;3.80;;;1.80;;
50900;SDS011;36879;51.416;6.678;2023-05-07T09:04:05;4.32;;;2.28;;
50900;SDS011;36879;51.416;6.678;2023-05-07T09:06:32;3.50;;;1.98;;
50900;SDS011;36879;51.416;6.678;2023-05-07T09:08:58;4.55;;;1.90;;
50900;SDS011;36879;51.416;6.678;2023-05-07T09:11:26;2.00;;;1.20;;
50900;SDS011;36879;51.416;6.678;2023-05-07T09:13:53;3.55;;;1.33;;
50900;SDS011;36879;51.416;6.678;2023-05-07T09:16:20;2.60;;;1.73;;
50900;SDS011;36879;51.416;6.678;2023-05-07T09:18:46;4.28;;;1.58;;
50900;SDS011;36879;51.416;6.678;2023-05-07T09:21:14;3.38;;;1.80;;
50900;SDS011;36879;51.416;6.678;2023-05-07T09:23:41;5.30;;;2.90;;
50900;SDS011;36879;51.416;6.678;2023-05-07T09:26:07;3.05;;;1.73;;
50900;SDS011;36879;51.416;6.678;2023-05-07T09:28:43;3.00;;;1.40;;
50900;SDS011;36879;51.416;6.678;2023-05-07T09:31:09;2.90;;;1.38;;
50900;SDS011;36879;51.416;6.678;2023-05-07T09:33:36;2.17;;;1.25;;
50900;SDS011;36879;51.416;6.678;2023-05-07T09:36:02;3.38;;;1.70;;
50900;SDS011;36879;51.416;6.678;2023-05-07T09:38:30;2.78;;;1.00;;
50900;SDS011;36879;51.416;6.678;2023-05-07T09:41:01;2.70;;;1.40;;
50900;SDS011;36879;51.416;6.678;2023-05-07T09:43:31;3.40;;;1.17;;
50900;SDS011;36879;51.416;6.678;2023-05-07T09:45:57;3.65;;;1.35;;
50900;SDS011;36879;51.416;6.678;2023-05-07T09:48:24;4.82;;;2.25;;
50900;SDS011;36879;51.416;6.678;2023-05-07T09:50:51;4.20;;;1.90;;
50900;SDS011;36879;51.416;6.678;2023-05-07T09:53:23;5.35;;;2.38;;
50900;SDS011;36879;51.416;6.678;2023-05-07T09:55:49;3.30;;;1.30;;
50900;SDS011;36879;51.416;6.678;2023-05-07T09:58:16;3.05;;;1.30;;
50900;SDS011;36879;51.416;6.678;2023-05-07T10:00:44;2.50;;;1.25;;
50900;SDS011;36879;51.416;6.678;2023-05-07T10:03:11;3.53;;;1.60;;
50900;SDS011;36879;51.416;6.678;2023-05-07T10:05:39;5.35;;;2.03;;
50900;SDS011;36879;51.416;6.678;2023-05-07T10:08:05;3.58;;;1.50;;
50900;SDS011;36879;51.416;6.678;2023-05-07T10:10:32;4.07;;;1.77;;
50900;SDS011;36879;51.416;6.678;2023-05-07T10:12:58;7.55;;;2.65;;
50900;SDS011;36879;51.416;6.678;2023-05-07T10:15:24;5.53;;;2.50;;
50900;SDS011;36879;51.416;6.678;2023-05-07T10:17:50;4.63;;;2.42;;
50900;SDS011;36879;51.416;6.678;2023-05-07T10:20:17;5.20;;;2.35;;
50900;SDS011;36879;51.416;6.678;2023-05-07T10:22:44;4.28;;;2.33;;
50900;SDS011;36879;51.416;6.678;2023-05-07T10:25:14;4.07;;;2.20;;
50900;SDS011;36879;51.416;6.678;2023-05-07T10:27:42;6.32;;;2.50;;
50900;SDS011;36879;51.416;6.678;2023-05-07T10:32:37;3.33;;;2.03;;
50900;SDS011;36879;51.416;6.678;2023-05-07T10:35:05;4.20;;;1.60;;
50900;SDS011;36879;51.416;6.678;2023-05-07T10:37:32;2.88;;;1.45;;
50900;SDS011;36879;51.416;6.678;2023-05-07T10:39:58;5.57;;;1.65;;
50900;SDS011;36879;51.416;6.678;2023-05-07T10:42:24;5.00;;;2.10;;
50900;SDS011;36879;51.416;6.678;2023-05-07T10:44:50;4.93;;;1.63;;
50900;SDS011;36879;51.416;6.678;2023-05-07T10:47:16;3.60;;;1.55;;
50900;SDS011;36879;51.416;6.678;2023-05-07T10:54:42;3.70;;;1.85;;
50900;SDS011;36879;51.416;6.678;2023-05-07T10:57:51;3.58;;;1.67;;
50900;SDS011;36879;51.416;6.678;2023-05-07T11:00:00;2.63;;;1.40;;
50900;SDS011;36879;51.416;6.678;2023-05-07T11:05:23;3.33;;;1.48;;
50900;SDS011;36879;51.416;6.678;2023-05-07T11:07:59;2.63;;;1.42;;
50900;SDS011;36879;51.416;6.678;2023-05-07T11:13:10;3.55;;;1.67;;
50900;SDS011;36879;51.416;6.678;2023-05-07T11:15:43;4.32;;;1.65;;
50900;SDS011;36879;51.416;6.678;2023-05-07T11:18:10;2.88;;;1.58;;
50900;SDS011;36879;51.416;6.678;2023-05-07T11:20:56;3.58;;;2.20;;
50900;SDS011;36879;51.416;6.678;2023-05-07T11:26:02;2.30;;;1.30;;
50900;SDS011;36879;51.416;6.678;2023-05-07T11:28:29;2.65;;;1.25;;
50900;SDS011;36879;51.416;6.678;2023-05-07T11:30:56;2.60;;;1.23;;
50900;SDS011;36879;51.416;6.678;2023-05-07T11:33:22;3.42;;;1.65;;
50900;SDS011;36879;51.416;6.678;2023-05-07T11:35:50;4.15;;;1.50;;
50900;SDS011;36879;51.416;6.678;2023-05-07T11:38:16;3.92;;;1.52;;
50900;SDS011;36879;51.416;6.678;2023-05-07T11:40:52;3.17;;;2.08;;
50900;SDS011;36879;51.416;6.678;2023-05-07T11:43:18;6.38;;;2.03;;
50900;SDS011;36879;51.416;6.678;2023-05-07T11:45:45;2.30;;;1.50;;
50900;SDS011;36879;51.416;6.678;2023-05-07T11:48:12;3.05;;;1.73;;
50900;SDS011;36879;51.416;6.678;2023-05-07T11:53:17;3.58;;;1.50;;
50900;SDS011;36879;51.416;6.678;2023-05-07T11:55:43;4.25;;;1.50;;
50900;SDS011;36879;51.416;6.678;2023-05-07T11:58:10;2.30;;;1.40;;
50900;SDS011;36879;51.416;6.678;2023-05-07T12:00:36;4.10;;;1.50;;
50900;SDS011;36879;51.416;6.678;2023-05-07T12:03:05;3.40;;;1.75;;
50900;SDS011;36879;51.416;6.678;2023-05-07T12:05:31;3.45;;;1.65;;
50900;SDS011;36879;51.416;6.678;2023-05-07T12:07:57;3.10;;;1.63;;
50900;SDS011;36879;51.416;6.678;2023-05-07T12:10:23;2.63;;;1.60;;
50900;SDS011;36879;51.416;6.678;2023-05-07T12:12:50;3.30;;;1.50;;
50900;SDS011;36879;51.416;6.678;2023-05-07T12:15:22;2.13;;;1.52;;
50900;SDS011;36879;51.416;6.678;2023-05-07T12:17:48;2.00;;;1.25;;
50900;SDS011;36879;51.416;6.678;2023-05-07T12:20:14;2.35;;;1.42;;
50900;SDS011;36879;51.416;6.678;2023-05-07T12:22:41;2.95;;;1.73;;
50900;SDS011;36879;51.416;6.678;2023-05-07T12:25:07;3.88;;;1.88;;
50900;SDS011;36879;51.416;6.678;2023-05-07T12:27:36;2.95;;;1.42;;
50900;SDS011;36879;51.416;6.678;2023-05-07T12:30:03;3.15;;;1.60;;
50900;SDS011;36879;51.416;6.678;2023-05-07T12:32:29;2.72;;;1.38;;
50900;SDS011;36879;51.416;6.678;2023-05-07T12:34:55;5.13;;;2.20;;
50900;SDS011;36879;51.416;6.678;2023-05-07T12:37:24;2.55;;;1.70;;
50900;SDS011;36879;51.416;6.678;2023-05-07T12:40:03;3.15;;;1.40;;
50900;SDS011;36879;51.416;6.678;2023-05-07T12:42:33;2.97;;;1.70;;
50900;SDS011;36879;51.416;6.678;2023-05-07T12:45:07;3.30;;;1.45;;
50900;SDS011;36879;51.416;6.678;2023-05-07T12:47:33;2.35;;;1.50;;
50900;SDS011;36879;51.416;6.678;2023-05-07T12:49:59;3.65;;;2.00;;
50900;SDS011;36879;51.416;6.678;2023-05-07T12:52:25;4.78;;;1.80;;
50900;SDS011;36879;51.416;6.678;2023-05-07T12:54:51;6.78;;;2.55;;
50900;SDS011;36879;51.416;6.678;2023-05-07T12:57:19;2.58;;;1.55;;
50900;SDS011;36879;51.416;6.678;2023-05-07T12:59:45;4.97;;;1.50;;
50900;SDS011;36879;51.416;6.678;2023-05-07T13:02:11;3.95;;;1.42;;
50900;SDS011;36879;51.416;6.678;2023-05-07T13:04:37;3.65;;;1.60;;
50900;SDS011;36879;51.416;6.678;2023-05-07T13:07:03;4.07;;;1.95;;
50900;SDS011;36879;51.416;6.678;2023-05-07T13:09:30;5.18;;;2.10;;
50900;SDS011;36879;51.416;6.678;2023-05-07T13:11:57;4.50;;;2.08;;
50900;SDS011;36879;51.416;6.678;2023-05-07T13:14:26;4.57;;;2.00;;
50900;SDS011;36879;51.416;6.678;2023-05-07T13:16:52;6.10;;;2.35;;
50900;SDS011;36879;51.416;6.678;2023-05-07T13:19:18;3.38;;;2.00;;
50900;SDS011;36879;51.416;6.678;2023-05-07T13:21:44;5.82;;;2.28;;
50900;SDS011;36879;51.416;6.678;2023-05-07T13:24:10;3.58;;;1.88;;
50900;SDS011;36879;51.416;6.678;2023-05-07T13:26:36;3.47;;;2.00;;
50900;SDS011;36879;51.416;6.678;2023-05-07T13:29:02;3.95;;;2.10;;
50900;SDS011;36879;51.416;6.678;2023-05-07T13:31:28;5.55;;;2.00;;
50900;SDS011;36879;51.416;6.678;2023-05-07T13:33:54;3.90;;;1.63;;
50900;SDS011;36879;51.416;6.678;2023-05-07T13:36:21;3.80;;;1.98;;
50900;SDS011;36879;51.416;6.678;2023-05-07T13:38:47;3.13;;;1.83;;
50900;SDS011;36879;51.416;6.678;2023-05-07T13:41:13;5.00;;;1.83;;
50900;SDS011;36879;51.416;6.678;2023-05-07T13:43:39;13.85;;;2.50;;
50900;SDS011;36879;51.416;6.678;2023-05-07T13:46:05;4.55;;;2.05;;
50900;SDS011;36879;51.416;6.678;2023-05-07T13:48:31;4.18;;;2.05;;
50900;SDS011;36879;51.416;6.678;2023-05-07T13:50:57;5.68;;;2.03;;
50900;SDS011;36879;51.416;6.678;2023-05-07T13:53:23;4.53;;;2.67;;
50900;SDS011;36879;51.416;6.678;2023-05-07T13:55:49;5.97;;;2.67;;
50900;SDS011;36879;51.416;6.678;2023-05-07T13:58:15;4.25;;;2.50;;
50900;SDS011;36879;51.416;6.678;2023-05-07T14:00:41;4.22;;;2.60;;
50900;SDS011;36879;51.416;6.678;2023-05-07T14:03:07;3.92;;;2.40;;
50900;SDS011;36879;51.416;6.678;2023-05-07T14:05:33;3.13;;;1.88;;
50900;SDS011;36879;51.416;6.678;2023-05-07T14:08:00;3.95;;;2.70;;
50900;SDS011;36879;51.416;6.678;2023-05-07T14:10:27;6.68;;;2.95;;
50900;SDS011;36879;51.416;6.678;2023-05-07T14:12:53;6.18;;;3.40;;
50900;SDS011;36879;51.416;6.678;2023-05-07T14:15:19;5.35;;;3.00;;
50900;SDS011;36879;51.416;6.678;2023-05-07T14:17:45;5.43;;;3.28;;
50900;SDS011;36879;51.416;6.678;2023-05-07T14:20:12;4.82;;;3.15;;
50900;SDS011;36879;51.416;6.678;2023-05-07T14:22:38;5.18;;;3.55;;
50900;SDS011;36879;51.416;6.678;2023-05-07T14:25:04;6.45;;;4.28;;
50900;SDS011;36879;51.416;6.678;2023-05-07T14:27:30;7.55;;;4.28;;
50900;SDS011;36879;51.416;6.678;2023-05-07T14:29:56;21.38;;;7.00;;
50900;SDS011;36879;51.416;6.678;2023-05-07T14:32:22;33.05;;;8.05;;
50900;SDS011;36879;51.416;6.678;2023-05-07T14:34:48;23.65;;;8.45;;
50900;SDS011;36879;51.416;6.678;2023-05-07T14:37:15;21.95;;;9.10;;
50900;SDS011;36879;51.416;6.678;2023-05-07T14:39:41;17.55;;;11.13;;
50900;SDS011;36879;51.416;6.678;2023-05-07T14:42:07;21.40;;;12.90;;
50900;SDS011;36879;51.416;6.678;2023-05-07T14:44:34;22.73;;;13.95;;
50900;SDS011;36879;51.416;6.678;2023-05-07T14:47:00;32.17;;;17.70;;
50900;SDS011;36879;51.416;6.678;2023-05-07T14:49:26;35.78;;;18.23;;
50900;SDS011;36879;51.416;6.678;2023-05-07T14:51:52;26.33;;;16.45;;